sensor_id;sensor_type;location;lat;lon;timestamp;temperature;humidity
24450;DHT22;13349;50.984;5.822;2023-03-13T00:01:48;10.70;99.90
24450;DHT22;13349;50.984;5.822;2023-03-13T00:04:15;10.90;99.90
24450;DHT22;13349;50.984;5.822;2023-03-13T00:06:41;10.90;99.90
24450;DHT22;13349;50.984;5.822;2023-03-13T00:09:09;10.90;99.90
24450;DHT22;13349;50.984;5.822;2023-03-13T00:11:36;11.00;99.90
24450;DHT22;13349;50.984;5.822;2023-03-13T00:14:04;11.00;99.90
24450;DHT22;13349;50.984;5.822;2023-03-13T00:16:31;11.00;99.90
24450;DHT22;13349;50.984;5.822;2023-03-13T00:19:00;11.10;99.90
24450;DHT22;13349;50.984;5.822;2023-03-13T00:21:27;11.10;99.90
24450;DHT22;13349;50.984;5.822;2023-03-13T00:23:54;11.20;99.90
24450;DHT22;13349;50.984;5.822;2023-03-13T00:26:21;11.20;99.90
24450;DHT22;13349;50.984;5.822;2023-03-13T00:28:49;11.20;99.90
24450;DHT22;13349;50.984;5.822;2023-03-13T00:31:18;11.30;99.90
24450;DHT22;13349;50.984;5.822;2023-03-13T00:33:45;11.30;99.90
24450;DHT22;13349;50.984;5.822;2023-03-13T00:36:13;11.40;99.90
24450;DHT22;13349;50.984;5.822;2023-03-13T00:38:40;11.40;99.90
24450;DHT22;13349;50.984;5.822;2023-03-13T00:41:08;11.30;99.90
24450;DHT22;13349;50.984;5.822;2023-03-13T00:43:36;11.10;1.00
24450;DHT22;13349;50.984;5.822;2023-03-13T00:46:04;11.00;1.00
24450;DHT22;13349;50.984;5.822;2023-03-13T00:48:32;10.90;99.90
24450;DHT22;13349;50.984;5.822;2023-03-13T00:50:59;10.80;1.00
24450;DHT22;13349;50.984;5.822;2023-03-13T00:53:26;10.70;99.90
24450;DHT22;13349;50.984;5.822;2023-03-13T00:55:53;10.60;1.00
24450;DHT22;13349;50.984;5.822;2023-03-13T00:58:21;10.60;99.90
24450;DHT22;13349;50.984;5.822;2023-03-13T01:00:48;10.50;1.00
24450;DHT22;13349;50.984;5.822;2023-03-13T01:03:15;10.50;1.00
24450;DHT22;13349;50.984;5.822;2023-03-13T01:05:43;10.60;90.50
24450;DHT22;13349;50.984;5.822;2023-03-13T01:08:10;10.60;1.00
24450;DHT22;13349;50.984;5.822;2023-03-13T01:10:37;10.60;94.30
24450;DHT22;13349;50.984;5.822;2023-03-13T01:13:04;10.60;99.90
24450;DHT22;13349;50.984;5.822;2023-03-13T01:15:33;10.70;1.00
24450;DHT22;13349;50.984;5.822;2023-03-13T01:18:00;10.60;99.90
24450;DHT22;13349;50.984;5.822;2023-03-13T01:20:27;10.70;99.90
24450;DHT22;13349;50.984;5.822;2023-03-13T01:22:56;10.80;99.90
24450;DHT22;13349;50.984;5.822;2023-03-13T01:25:23;10.80;99.90
24450;DHT22;13349;50.984;5.822;2023-03-13T01:27:49;10.70;99.90
24450;DHT22;13349;50.984;5.822;2023-03-13T01:30:16;10.80;99.90
24450;DHT22;13349;50.984;5.822;2023-03-13T01:32:43;10.80;99.90
24450;DHT22;13349;50.984;5.822;2023-03-13T01:35:10;10.80;99.90
24450;DHT22;13349;50.984;5.822;2023-03-13T01:37:37;10.80;99.90
24450;DHT22;13349;50.984;5.822;2023-03-13T01:40:06;10.90;99.90
24450;DHT22;13349;50.984;5.822;2023-03-13T01:42:47;10.90;99.90
24450;DHT22;13349;50.984;5.822;2023-03-13T01:47:56;10.80;99.90
24450;DHT22;13349;50.984;5.822;2023-03-13T01:50:22;10.70;99.90
24450;DHT22;13349;50.984;5.822;2023-03-13T01:52:49;10.60;99.90
24450;DHT22;13349;50.984;5.822;2023-03-13T01:55:18;10.70;99.90
24450;DHT22;13349;50.984;5.822;2023-03-13T01:57:45;10.70;99.90
24450;DHT22;13349;50.984;5.822;2023-03-13T02:00:14;10.80;99.90
24450;DHT22;13349;50.984;5.822;2023-03-13T02:02:43;10.80;99.90
24450;DHT22;13349;50.984;5.822;2023-03-13T02:05:11;10.80;99.90
24450;DHT22;13349;50.984;5.822;2023-03-13T02:07:40;10.90;99.90
24450;DHT22;13349;50.984;5.822;2023-03-13T02:10:09;10.90;99.90
24450;DHT22;13349;50.984;5.822;2023-03-13T02:12:38;10.90;99.90
24450;DHT22;13349;50.984;5.822;2023-03-13T02:15:06;11.00;99.90
24450;DHT22;13349;50.984;5.822;2023-03-13T02:17:33;11.00;99.90
24450;DHT22;13349;50.984;5.822;2023-03-13T02:20:01;11.00;99.90
24450;DHT22;13349;50.984;5.822;2023-03-13T02:22:29;11.00;99.90
24450;DHT22;13349;50.984;5.822;2023-03-13T02:24:57;11.10;99.90
24450;DHT22;13349;50.984;5.822;2023-03-13T02:27:29;11.20;99.90
24450;DHT22;13349;50.984;5.822;2023-03-13T02:29:55;11.20;99.90
24450;DHT22;13349;50.984;5.822;2023-03-13T02:32:23;11.30;99.90
24450;DHT22;13349;50.984;5.822;2023-03-13T02:34:51;11.40;99.90
24450;DHT22;13349;50.984;5.822;2023-03-13T02:37:20;11.30;99.90
24450;DHT22;13349;50.984;5.822;2023-03-13T02:39:48;11.40;99.90
24450;DHT22;13349;50.984;5.822;2023-03-13T02:42:16;11.40;99.90
24450;DHT22;13349;50.984;5.822;2023-03-13T02:44:45;11.40;99.90
24450;DHT22;13349;50.984;5.822;2023-03-13T02:47:16;11.30;99.90
24450;DHT22;13349;50.984;5.822;2023-03-13T02:49:43;11.40;99.90
24450;DHT22;13349;50.984;5.822;2023-03-13T02:52:10;11.40;99.90
24450;DHT22;13349;50.984;5.822;2023-03-13T02:54:38;11.50;99.90
24450;DHT22;13349;50.984;5.822;2023-03-13T02:57:06;11.50;99.90
24450;DHT22;13349;50.984;5.822;2023-03-13T02:59:33;11.60;99.90
24450;DHT22;13349;50.984;5.822;2023-03-13T03:02:01;11.70;99.90
24450;DHT22;13349;50.984;5.822;2023-03-13T03:04:28;11.80;99.90
24450;DHT22;13349;50.984;5.822;2023-03-13T03:06:55;11.80;99.90
24450;DHT22;13349;50.984;5.822;2023-03-13T03:09:23;11.80;99.90
24450;DHT22;13349;50.984;5.822;2023-03-13T03:11:50;11.80;99.90
24450;DHT22;13349;50.984;5.822;2023-03-13T03:14:17;11.80;99.90
24450;DHT22;13349;50.984;5.822;2023-03-13T03:16:44;11.90;99.90
24450;DHT22;13349;50.984;5.822;2023-03-13T03:19:12;11.90;99.90
24450;DHT22;13349;50.984;5.822;2023-03-13T03:21:39;11.90;99.90
24450;DHT22;13349;50.984;5.822;2023-03-13T03:24:06;12.00;99.90
24450;DHT22;13349;50.984;5.822;2023-03-13T03:26:33;12.00;99.90
24450;DHT22;13349;50.984;5.822;2023-03-13T03:29:00;11.90;99.90
24450;DHT22;13349;50.984;5.822;2023-03-13T03:31:26;12.00;99.90
24450;DHT22;13349;50.984;5.822;2023-03-13T03:33:53;12.00;99.90
24450;DHT22;13349;50.984;5.822;2023-03-13T03:36:22;12.10;99.90
24450;DHT22;13349;50.984;5.822;2023-03-13T03:38:49;12.10;99.90
24450;DHT22;13349;50.984;5.822;2023-03-13T03:41:16;12.10;99.90
24450;DHT22;13349;50.984;5.822;2023-03-13T03:43:43;12.10;99.90
24450;DHT22;13349;50.984;5.822;2023-03-13T03:46:12;12.20;99.90
24450;DHT22;13349;50.984;5.822;2023-03-13T03:48:39;12.20;99.90
24450;DHT22;13349;50.984;5.822;2023-03-13T03:51:06;12.20;99.90
24450;DHT22;13349;50.984;5.822;2023-03-13T03:53:34;12.20;99.90
24450;DHT22;13349;50.984;5.822;2023-03-13T03:56:01;12.20;99.90
24450;DHT22;13349;50.984;5.822;2023-03-13T03:58:28;12.20;99.90
24450;DHT22;13349;50.984;5.822;2023-03-13T04:00:55;12.20;99.90
24450;DHT22;13349;50.984;5.822;2023-03-13T04:03:23;12.30;99.90
24450;DHT22;13349;50.984;5.822;2023-03-13T04:05:50;12.30;99.90
24450;DHT22;13349;50.984;5.822;2023-03-13T04:08:17;12.30;99.90
24450;DHT22;13349;50.984;5.822;2023-03-13T04:10:45;12.40;99.90
24450;DHT22;13349;50.984;5.822;2023-03-13T04:13:12;12.50;99.90
24450;DHT22;13349;50.984;5.822;2023-03-13T04:15:39;12.50;99.90
24450;DHT22;13349;50.984;5.822;2023-03-13T04:18:06;12.60;99.90
24450;DHT22;13349;50.984;5.822;2023-03-13T04:20:33;12.50;99.90
24450;DHT22;13349;50.984;5.822;2023-03-13T04:22:59;12.60;99.90
24450;DHT22;13349;50.984;5.822;2023-03-13T04:25:26;12.60;99.90
24450;DHT22;13349;50.984;5.822;2023-03-13T04:27:55;12.70;99.90
24450;DHT22;13349;50.984;5.822;2023-03-13T04:30:22;12.70;99.90
24450;DHT22;13349;50.984;5.822;2023-03-13T04:32:49;12.60;99.90
24450;DHT22;13349;50.984;5.822;2023-03-13T04:35:16;12.70;99.90
24450;DHT22;13349;50.984;5.822;2023-03-13T04:37:43;12.70;99.90
24450;DHT22;13349;50.984;5.822;2023-03-13T04:40:11;12.80;99.90
24450;DHT22;13349;50.984;5.822;2023-03-13T04:42:38;12.70;99.90
24450;DHT22;13349;50.984;5.822;2023-03-13T04:45:07;12.70;99.90
24450;DHT22;13349;50.984;5.822;2023-03-13T04:47:36;12.80;99.90
24450;DHT22;13349;50.984;5.822;2023-03-13T04:50:03;12.70;99.90
24450;DHT22;13349;50.984;5.822;2023-03-13T04:52:30;12.90;99.90
24450;DHT22;13349;50.984;5.822;2023-03-13T04:54:57;12.90;99.90
24450;DHT22;13349;50.984;5.822;2023-03-13T04:57:24;13.00;99.90
24450;DHT22;13349;50.984;5.822;2023-03-13T04:59:51;13.00;99.90
24450;DHT22;13349;50.984;5.822;2023-03-13T05:02:19;13.00;99.90
24450;DHT22;13349;50.984;5.822;2023-03-13T05:04:46;13.10;99.90
24450;DHT22;13349;50.984;5.822;2023-03-13T05:07:13;13.10;99.90
24450;DHT22;13349;50.984;5.822;2023-03-13T05:09:40;13.10;99.90
24450;DHT22;13349;50.984;5.822;2023-03-13T05:12:07;13.10;99.90
24450;DHT22;13349;50.984;5.822;2023-03-13T05:14:34;13.00;99.90
24450;DHT22;13349;50.984;5.822;2023-03-13T05:17:01;13.10;99.90
24450;DHT22;13349;50.984;5.822;2023-03-13T05:19:32;13.20;99.90
24450;DHT22;13349;50.984;5.822;2023-03-13T05:21:59;13.10;99.90
24450;DHT22;13349;50.984;5.822;2023-03-13T05:24:26;13.10;99.90
24450;DHT22;13349;50.984;5.822;2023-03-13T05:26:53;13.10;99.90
24450;DHT22;13349;50.984;5.822;2023-03-13T05:29:20;13.20;99.90
24450;DHT22;13349;50.984;5.822;2023-03-13T05:31:47;13.10;99.90
24450;DHT22;13349;50.984;5.822;2023-03-13T05:34:14;13.30;99.90
24450;DHT22;13349;50.984;5.822;2023-03-13T05:36:42;13.10;99.90
24450;DHT22;13349;50.984;5.822;2023-03-13T05:39:09;13.10;99.90
24450;DHT22;13349;50.984;5.822;2023-03-13T05:41:36;13.20;99.90
24450;DHT22;13349;50.984;5.822;2023-03-13T05:44:03;13.20;99.90
24450;DHT22;13349;50.984;5.822;2023-03-13T05:46:30;13.30;99.90
24450;DHT22;13349;50.984;5.822;2023-03-13T05:48:58;13.20;99.90
24450;DHT22;13349;50.984;5.822;2023-03-13T05:51:25;13.40;99.90
24450;DHT22;13349;50.984;5.822;2023-03-13T05:53:53;13.40;99.90
24450;DHT22;13349;50.984;5.822;2023-03-13T05:56:20;13.30;1.00
24450;DHT22;13349;50.984;5.822;2023-03-13T05:58:47;13.40;1.00
24450;DHT22;13349;50.984;5.822;2023-03-13T06:01:14;13.40;1.00
24450;DHT22;13349;50.984;5.822;2023-03-13T06:03:40;13.30;99.90
24450;DHT22;13349;50.984;5.822;2023-03-13T06:06:07;13.40;1.00
24450;DHT22;13349;50.984;5.822;2023-03-13T06:08:34;13.40;1.00
24450;DHT22;13349;50.984;5.822;2023-03-13T06:11:02;13.40;38.20
24450;DHT22;13349;50.984;5.822;2023-03-13T06:13:29;13.40;1.00
24450;DHT22;13349;50.984;5.822;2023-03-13T06:15:56;13.40;99.90
24450;DHT22;13349;50.984;5.822;2023-03-13T06:18:23;13.50;1.00
24450;DHT22;13349;50.984;5.822;2023-03-13T06:20:55;13.50;1.00
24450;DHT22;13349;50.984;5.822;2023-03-13T06:23:22;13.50;1.00
24450;DHT22;13349;50.984;5.822;2023-03-13T06:25:49;13.50;99.90
24450;DHT22;13349;50.984;5.822;2023-03-13T06:28:17;13.60;1.00
24450;DHT22;13349;50.984;5.822;2023-03-13T06:30:44;13.60;1.00
24450;DHT22;13349;50.984;5.822;2023-03-13T06:33:11;13.60;99.90
24450;DHT22;13349;50.984;5.822;2023-03-13T06:35:38;13.60;99.90
24450;DHT22;13349;50.984;5.822;2023-03-13T06:38:06;13.50;52.80
24450;DHT22;13349;50.984;5.822;2023-03-13T06:40:33;13.50;1.00
24450;DHT22;13349;50.984;5.822;2023-03-13T06:43:00;13.70;1.00
24450;DHT22;13349;50.984;5.822;2023-03-13T06:45:28;13.80;1.00
24450;DHT22;13349;50.984;5.822;2023-03-13T06:47:55;13.70;1.00
24450;DHT22;13349;50.984;5.822;2023-03-13T06:50:22;13.80;99.90
24450;DHT22;13349;50.984;5.822;2023-03-13T06:52:49;13.90;1.00
24450;DHT22;13349;50.984;5.822;2023-03-13T06:55:16;13.90;1.00
24450;DHT22;13349;50.984;5.822;2023-03-13T06:57:43;13.90;1.00
24450;DHT22;13349;50.984;5.822;2023-03-13T07:00:10;14.00;1.00
24450;DHT22;13349;50.984;5.822;2023-03-13T07:02:38;14.00;99.90
24450;DHT22;13349;50.984;5.822;2023-03-13T07:05:06;14.00;99.90
24450;DHT22;13349;50.984;5.822;2023-03-13T07:07:33;14.10;99.90
24450;DHT22;13349;50.984;5.822;2023-03-13T07:10:00;14.20;1.00
24450;DHT22;13349;50.984;5.822;2023-03-13T07:12:27;14.10;1.00
24450;DHT22;13349;50.984;5.822;2023-03-13T07:14:54;14.10;1.00
24450;DHT22;13349;50.984;5.822;2023-03-13T07:17:21;14.10;1.00
24450;DHT22;13349;50.984;5.822;2023-03-13T07:19:49;14.10;1.00
24450;DHT22;13349;50.984;5.822;2023-03-13T07:22:16;14.00;1.00
24450;DHT22;13349;50.984;5.822;2023-03-13T07:24:43;14.20;1.00
24450;DHT22;13349;50.984;5.822;2023-03-13T07:27:10;14.00;99.90
24450;DHT22;13349;50.984;5.822;2023-03-13T07:29:36;14.10;99.90
24450;DHT22;13349;50.984;5.822;2023-03-13T07:32:04;14.00;99.90
24450;DHT22;13349;50.984;5.822;2023-03-13T07:34:31;14.10;99.90
24450;DHT22;13349;50.984;5.822;2023-03-13T07:36:59;14.10;99.90
24450;DHT22;13349;50.984;5.822;2023-03-13T07:39:26;14.10;99.90
24450;DHT22;13349;50.984;5.822;2023-03-13T07:41:53;14.10;77.00
24450;DHT22;13349;50.984;5.822;2023-03-13T07:44:20;14.20;1.00
24450;DHT22;13349;50.984;5.822;2023-03-13T07:46:47;14.10;7.80
24450;DHT22;13349;50.984;5.822;2023-03-13T07:49:14;14.20;1.00
24450;DHT22;13349;50.984;5.822;2023-03-13T07:51:41;14.20;1.00
24450;DHT22;13349;50.984;5.822;2023-03-13T07:54:10;14.30;1.00
24450;DHT22;13349;50.984;5.822;2023-03-13T07:56:37;14.20;1.00
24450;DHT22;13349;50.984;5.822;2023-03-13T07:59:04;14.20;1.00
24450;DHT22;13349;50.984;5.822;2023-03-13T08:01:31;14.30;1.00
24450;DHT22;13349;50.984;5.822;2023-03-13T08:03:58;14.30;1.00
24450;DHT22;13349;50.984;5.822;2023-03-13T08:06:26;14.30;1.00
24450;DHT22;13349;50.984;5.822;2023-03-13T08:08:55;14.40;1.00
24450;DHT22;13349;50.984;5.822;2023-03-13T08:11:24;14.40;1.00
24450;DHT22;13349;50.984;5.822;2023-03-13T08:13:52;14.40;1.00
24450;DHT22;13349;50.984;5.822;2023-03-13T08:16:19;14.40;1.00
24450;DHT22;13349;50.984;5.822;2023-03-13T08:18:47;14.40;1.00
24450;DHT22;13349;50.984;5.822;2023-03-13T08:21:15;14.40;1.00
24450;DHT22;13349;50.984;5.822;2023-03-13T08:23:42;14.50;1.00
24450;DHT22;13349;50.984;5.822;2023-03-13T08:26:10;14.40;1.00
24450;DHT22;13349;50.984;5.822;2023-03-13T08:28:39;14.40;1.00
24450;DHT22;13349;50.984;5.822;2023-03-13T08:31:07;14.50;1.00
24450;DHT22;13349;50.984;5.822;2023-03-13T08:33:34;14.60;4.50
24450;DHT22;13349;50.984;5.822;2023-03-13T08:36:07;14.70;1.00
24450;DHT22;13349;50.984;5.822;2023-03-13T08:38:34;14.70;1.00
24450;DHT22;13349;50.984;5.822;2023-03-13T08:41:00;14.70;1.00
24450;DHT22;13349;50.984;5.822;2023-03-13T08:43:27;14.90;1.00
24450;DHT22;13349;50.984;5.822;2023-03-13T08:45:56;14.90;1.00
24450;DHT22;13349;50.984;5.822;2023-03-13T08:48:23;15.00;1.00
24450;DHT22;13349;50.984;5.822;2023-03-13T08:50:58;15.10;1.00
24450;DHT22;13349;50.984;5.822;2023-03-13T08:53:25;15.30;1.00
24450;DHT22;13349;50.984;5.822;2023-03-13T08:55:51;15.40;1.00
24450;DHT22;13349;50.984;5.822;2023-03-13T08:58:18;15.40;1.00
24450;DHT22;13349;50.984;5.822;2023-03-13T09:00:45;15.40;1.00
24450;DHT22;13349;50.984;5.822;2023-03-13T09:03:14;15.00;1.00
24450;DHT22;13349;50.984;5.822;2023-03-13T09:05:42;14.90;1.00
24450;DHT22;13349;50.984;5.822;2023-03-13T09:08:10;15.00;1.00
24450;DHT22;13349;50.984;5.822;2023-03-13T09:10:37;15.10;1.70
24450;DHT22;13349;50.984;5.822;2023-03-13T09:13:04;15.00;41.10
24450;DHT22;13349;50.984;5.822;2023-03-13T09:15:31;15.10;99.90
24450;DHT22;13349;50.984;5.822;2023-03-13T09:17:58;15.50;51.50
24450;DHT22;13349;50.984;5.822;2023-03-13T09:20:26;15.90;1.00
24450;DHT22;13349;50.984;5.822;2023-03-13T09:22:53;16.10;1.00
24450;DHT22;13349;50.984;5.822;2023-03-13T09:25:20;15.90;1.00
24450;DHT22;13349;50.984;5.822;2023-03-13T09:27:47;16.00;1.00
24450;DHT22;13349;50.984;5.822;2023-03-13T09:30:14;16.10;1.00
24450;DHT22;13349;50.984;5.822;2023-03-13T09:32:41;16.50;1.00
24450;DHT22;13349;50.984;5.822;2023-03-13T09:35:08;16.40;99.90
24450;DHT22;13349;50.984;5.822;2023-03-13T09:37:36;16.80;99.90
24450;DHT22;13349;50.984;5.822;2023-03-13T09:40:03;16.70;99.90
24450;DHT22;13349;50.984;5.822;2023-03-13T09:42:34;16.20;99.90
24450;DHT22;13349;50.984;5.822;2023-03-13T09:45:04;16.00;99.90
24450;DHT22;13349;50.984;5.822;2023-03-13T09:47:32;16.20;99.90
24450;DHT22;13349;50.984;5.822;2023-03-13T09:50:03;15.90;99.90
24450;DHT22;13349;50.984;5.822;2023-03-13T09:52:31;16.00;99.90
24450;DHT22;13349;50.984;5.822;2023-03-13T09:55:02;15.80;99.90
24450;DHT22;13349;50.984;5.822;2023-03-13T09:57:31;15.80;1.00
24450;DHT22;13349;50.984;5.822;2023-03-13T09:59:59;16.00;1.00
24450;DHT22;13349;50.984;5.822;2023-03-13T10:02:30;16.20;1.00
24450;DHT22;13349;50.984;5.822;2023-03-13T10:05:05;16.40;99.90
24450;DHT22;13349;50.984;5.822;2023-03-13T10:07:34;16.60;99.90
24450;DHT22;13349;50.984;5.822;2023-03-13T10:10:02;16.20;99.90
24450;DHT22;13349;50.984;5.822;2023-03-13T10:12:31;16.20;99.90
24450;DHT22;13349;50.984;5.822;2023-03-13T10:15:05;16.20;99.90
24450;DHT22;13349;50.984;5.822;2023-03-13T10:17:35;16.20;1.00
24450;DHT22;13349;50.984;5.822;2023-03-13T10:20:10;16.00;1.00
24450;DHT22;13349;50.984;5.822;2023-03-13T10:22:39;16.10;1.00
24450;DHT22;13349;50.984;5.822;2023-03-13T10:25:10;16.00;1.00
24450;DHT22;13349;50.984;5.822;2023-03-13T10:27:47;16.20;1.00
24450;DHT22;13349;50.984;5.822;2023-03-13T10:30:18;16.30;99.90
24450;DHT22;13349;50.984;5.822;2023-03-13T10:32:45;16.40;99.90
24450;DHT22;13349;50.984;5.822;2023-03-13T10:35:19;16.70;99.90
24450;DHT22;13349;50.984;5.822;2023-03-13T10:37:46;16.70;99.90
24450;DHT22;13349;50.984;5.822;2023-03-13T10:40:19;16.30;99.90
24450;DHT22;13349;50.984;5.822;2023-03-13T10:42:48;16.40;99.90
24450;DHT22;13349;50.984;5.822;2023-03-13T10:45:17;16.50;99.90
24450;DHT22;13349;50.984;5.822;2023-03-13T10:47:44;16.70;99.90
24450;DHT22;13349;50.984;5.822;2023-03-13T10:50:16;16.40;99.90
24450;DHT22;13349;50.984;5.822;2023-03-13T10:52:44;16.60;99.90
24450;DHT22;13349;50.984;5.822;2023-03-13T10:55:12;17.10;24.30
24450;DHT22;13349;50.984;5.822;2023-03-13T10:57:41;17.00;1.00
24450;DHT22;13349;50.984;5.822;2023-03-13T11:02:52;17.00;1.00
24450;DHT22;13349;50.984;5.822;2023-03-13T11:05:28;17.10;1.00
24450;DHT22;13349;50.984;5.822;2023-03-13T11:07:55;17.30;1.00
24450;DHT22;13349;50.984;5.822;2023-03-13T11:10:23;17.40;1.00
24450;DHT22;13349;50.984;5.822;2023-03-13T11:12:52;17.40;1.00
24450;DHT22;13349;50.984;5.822;2023-03-13T11:15:20;17.50;1.00
24450;DHT22;13349;50.984;5.822;2023-03-13T11:17:49;17.50;1.00
24450;DHT22;13349;50.984;5.822;2023-03-13T11:20:20;17.40;1.00
24450;DHT22;13349;50.984;5.822;2023-03-13T11:22:50;17.40;1.00
24450;DHT22;13349;50.984;5.822;2023-03-13T11:25:19;17.50;1.00
24450;DHT22;13349;50.984;5.822;2023-03-13T11:27:50;17.50;1.00
24450;DHT22;13349;50.984;5.822;2023-03-13T11:30:26;17.20;1.00
24450;DHT22;13349;50.984;5.822;2023-03-13T11:32:58;17.20;1.00
24450;DHT22;13349;50.984;5.822;2023-03-13T11:35:32;16.90;1.00
24450;DHT22;13349;50.984;5.822;2023-03-13T11:38:01;17.10;1.00
24450;DHT22;13349;50.984;5.822;2023-03-13T11:40:29;16.80;1.00
24450;DHT22;13349;50.984;5.822;2023-03-13T11:43:03;16.70;1.00
24450;DHT22;13349;50.984;5.822;2023-03-13T11:45:44;16.50;1.00
24450;DHT22;13349;50.984;5.822;2023-03-13T11:48:16;16.50;1.00
24450;DHT22;13349;50.984;5.822;2023-03-13T11:50:45;16.60;1.00
24450;DHT22;13349;50.984;5.822;2023-03-13T11:53:21;16.60;1.00
24450;DHT22;13349;50.984;5.822;2023-03-13T11:55:58;17.00;1.00
24450;DHT22;13349;50.984;5.822;2023-03-13T11:58:31;17.40;1.00
24450;DHT22;13349;50.984;5.822;2023-03-13T12:01:03;17.60;1.00
24450;DHT22;13349;50.984;5.822;2023-03-13T12:03:35;17.40;1.00
24450;DHT22;13349;50.984;5.822;2023-03-13T12:06:02;17.40;1.00
24450;DHT22;13349;50.984;5.822;2023-03-13T12:08:30;17.50;1.00
24450;DHT22;13349;50.984;5.822;2023-03-13T12:11:03;17.30;1.00
24450;DHT22;13349;50.984;5.822;2023-03-13T12:13:33;17.80;1.00
24450;DHT22;13349;50.984;5.822;2023-03-13T12:16:05;17.60;1.00
24450;DHT22;13349;50.984;5.822;2023-03-13T12:18:34;17.30;1.00
24450;DHT22;13349;50.984;5.822;2023-03-13T12:21:03;17.10;1.00
24450;DHT22;13349;50.984;5.822;2023-03-13T12:23:34;17.40;1.00
24450;DHT22;13349;50.984;5.822;2023-03-13T12:26:07;17.40;1.00
24450;DHT22;13349;50.984;5.822;2023-03-13T12:28:36;17.50;1.00
24450;DHT22;13349;50.984;5.822;2023-03-13T12:31:10;17.50;1.00
24450;DHT22;13349;50.984;5.822;2023-03-13T12:33:42;17.70;1.00
24450;DHT22;13349;50.984;5.822;2023-03-13T12:36:11;17.30;1.00
24450;DHT22;13349;50.984;5.822;2023-03-13T12:38:40;17.20;1.00
24450;DHT22;13349;50.984;5.822;2023-03-13T12:41:12;17.20;1.00
24450;DHT22;13349;50.984;5.822;2023-03-13T12:43:41;17.00;1.00
24450;DHT22;13349;50.984;5.822;2023-03-13T12:46:24;17.30;1.00
24450;DHT22;13349;50.984;5.822;2023-03-13T12:48:58;17.30;1.00
24450;DHT22;13349;50.984;5.822;2023-03-13T12:51:31;17.10;1.00
24450;DHT22;13349;50.984;5.822;2023-03-13T12:54:05;16.90;1.00
24450;DHT22;13349;50.984;5.822;2023-03-13T12:59:19;16.90;1.00
24450;DHT22;13349;50.984;5.822;2023-03-13T13:01:50;16.90;1.00
24450;DHT22;13349;50.984;5.822;2023-03-13T13:04:18;16.60;1.00
24450;DHT22;13349;50.984;5.822;2023-03-13T13:06:56;16.50;1.00
24450;DHT22;13349;50.984;5.822;2023-03-13T13:09:26;16.50;1.00
24450;DHT22;13349;50.984;5.822;2023-03-13T13:11:55;16.40;1.00
24450;DHT22;13349;50.984;5.822;2023-03-13T13:22:56;16.50;1.00
24450;DHT22;13349;50.984;5.822;2023-03-13T13:25:41;16.30;1.00
24450;DHT22;13349;50.984;5.822;2023-03-13T13:28:20;16.40;1.00
24450;DHT22;13349;50.984;5.822;2023-03-13T13:30:51;16.50;1.00
24450;DHT22;13349;50.984;5.822;2023-03-13T13:33:35;16.80;1.00
24450;DHT22;13349;50.984;5.822;2023-03-13T13:36:25;16.80;1.00
24450;DHT22;13349;50.984;5.822;2023-03-13T13:38:54;16.70;1.00
24450;DHT22;13349;50.984;5.822;2023-03-13T13:41:22;16.60;1.00
24450;DHT22;13349;50.984;5.822;2023-03-13T13:46:32;16.40;1.00
24450;DHT22;13349;50.984;5.822;2023-03-13T13:49:13;16.40;1.00
24450;DHT22;13349;50.984;5.822;2023-03-13T13:51:40;16.10;1.00
24450;DHT22;13349;50.984;5.822;2023-03-13T13:57:05;15.50;99.90
24450;DHT22;13349;50.984;5.822;2023-03-13T13:59:38;15.50;99.90
24450;DHT22;13349;50.984;5.822;2023-03-13T14:02:17;15.50;99.90
24450;DHT22;13349;50.984;5.822;2023-03-13T14:04:46;15.40;99.90
24450;DHT22;13349;50.984;5.822;2023-03-13T14:07:16;15.30;99.90
24450;DHT22;13349;50.984;5.822;2023-03-13T14:09:46;15.50;99.90
24450;DHT22;13349;50.984;5.822;2023-03-13T14:12:26;15.70;99.90
24450;DHT22;13349;50.984;5.822;2023-03-13T14:15:11;15.80;99.90
24450;DHT22;13349;50.984;5.822;2023-03-13T14:17:40;15.90;99.90
24450;DHT22;13349;50.984;5.822;2023-03-13T14:22:59;16.20;99.90
24450;DHT22;13349;50.984;5.822;2023-03-13T14:25:26;16.30;99.90
24450;DHT22;13349;50.984;5.822;2023-03-13T14:27:55;16.10;99.90
24450;DHT22;13349;50.984;5.822;2023-03-13T14:30:22;15.90;99.90
24450;DHT22;13349;50.984;5.822;2023-03-13T14:32:50;15.90;99.90
24450;DHT22;13349;50.984;5.822;2023-03-13T14:35:18;15.80;99.90
24450;DHT22;13349;50.984;5.822;2023-03-13T14:37:47;15.70;99.90
24450;DHT22;13349;50.984;5.822;2023-03-13T14:40:18;15.60;99.90
24450;DHT22;13349;50.984;5.822;2023-03-13T14:42:46;15.70;99.90
24450;DHT22;13349;50.984;5.822;2023-03-13T14:45:17;15.60;99.90
24450;DHT22;13349;50.984;5.822;2023-03-13T14:47:48;15.60;99.90
24450;DHT22;13349;50.984;5.822;2023-03-13T14:50:15;15.70;84.30
24450;DHT22;13349;50.984;5.822;2023-03-13T14:52:43;15.70;88.30
24450;DHT22;13349;50.984;5.822;2023-03-13T14:55:24;15.70;22.80
24450;DHT22;13349;50.984;5.822;2023-03-13T14:57:55;15.70;26.90
24450;DHT22;13349;50.984;5.822;2023-03-13T15:00:34;15.80;1.00
24450;DHT22;13349;50.984;5.822;2023-03-13T15:03:11;15.80;1.00
24450;DHT22;13349;50.984;5.822;2023-03-13T15:05:38;16.00;1.00
24450;DHT22;13349;50.984;5.822;2023-03-13T15:08:09;16.70;1.00
24450;DHT22;13349;50.984;5.822;2023-03-13T15:10:37;16.70;1.00
24450;DHT22;13349;50.984;5.822;2023-03-13T15:13:12;16.80;1.00
24450;DHT22;13349;50.984;5.822;2023-03-13T15:15:41;16.80;1.00
24450;DHT22;13349;50.984;5.822;2023-03-13T15:18:11;16.90;1.00
24450;DHT22;13349;50.984;5.822;2023-03-13T15:20:41;16.80;1.00
24450;DHT22;13349;50.984;5.822;2023-03-13T15:23:09;16.70;1.00
24450;DHT22;13349;50.984;5.822;2023-03-13T15:25:36;16.70;1.00
24450;DHT22;13349;50.984;5.822;2023-03-13T15:28:07;16.70;99.90
24450;DHT22;13349;50.984;5.822;2023-03-13T15:30:41;16.60;99.90
24450;DHT22;13349;50.984;5.822;2023-03-13T15:33:10;16.60;99.90
24450;DHT22;13349;50.984;5.822;2023-03-13T15:35:37;16.70;99.90
24450;DHT22;13349;50.984;5.822;2023-03-13T15:38:05;16.60;99.90
24450;DHT22;13349;50.984;5.822;2023-03-13T15:40:32;16.80;99.90
24450;DHT22;13349;50.984;5.822;2023-03-13T15:42:59;16.70;99.90
24450;DHT22;13349;50.984;5.822;2023-03-13T15:45:26;16.70;99.90
24450;DHT22;13349;50.984;5.822;2023-03-13T15:47:54;16.80;99.90
24450;DHT22;13349;50.984;5.822;2023-03-13T15:50:21;16.70;99.90
24450;DHT22;13349;50.984;5.822;2023-03-13T15:52:54;16.60;99.90
24450;DHT22;13349;50.984;5.822;2023-03-13T15:55:20;16.50;99.90
24450;DHT22;13349;50.984;5.822;2023-03-13T15:57:48;16.30;99.90
24450;DHT22;13349;50.984;5.822;2023-03-13T16:00:17;16.30;99.90
24450;DHT22;13349;50.984;5.822;2023-03-13T16:02:44;16.50;99.90
24450;DHT22;13349;50.984;5.822;2023-03-13T16:05:13;16.50;99.90
24450;DHT22;13349;50.984;5.822;2023-03-13T16:07:40;16.20;99.90
24450;DHT22;13349;50.984;5.822;2023-03-13T16:10:11;16.00;99.90
24450;DHT22;13349;50.984;5.822;2023-03-13T16:12:40;15.90;99.90